sensor_id;sensor_type;location;lat;lon;timestamp;P1;durP1;ratioP1;P2;durP2;ratioP2
28796;SDS011;24974;54.444;18.560;2022-08-19T00:01:50;33.05;;;19.75;;
28796;SDS011;24974;54.444;18.560;2022-08-19T00:04:24;23.98;;;19.15;;
28796;SDS011;24974;54.444;18.560;2022-08-19T00:06:58;21.20;;;19.00;;
28796;SDS011;24974;54.444;18.560;2022-08-19T00:09:29;25.40;;;20.40;;
28796;SDS011;24974;54.444;18.560;2022-08-19T00:12:00;26.05;;;20.88;;
28796;SDS011;24974;54.444;18.560;2022-08-19T00:14:32;25.73;;;19.98;;
28796;SDS011;24974;54.444;18.560;2022-08-19T00:17:02;24.67;;;19.75;;
28796;SDS011;24974;54.444;18.560;2022-08-19T00:19:35;29.90;;;21.48;;
28796;SDS011;24974;54.444;18.560;2022-08-19T00:22:07;22.20;;;19.90;;
28796;SDS011;24974;54.444;18.560;2022-08-19T00:24:38;25.42;;;20.88;;
28796;SDS011;24974;54.444;18.560;2022-08-19T00:27:11;24.70;;;20.60;;
28796;SDS011;24974;54.444;18.560;2022-08-19T00:29:42;27.35;;;20.02;;
28796;SDS011;24974;54.444;18.560;2022-08-19T00:32:13;24.83;;;20.95;;
28796;SDS011;24974;54.444;18.560;2022-08-19T00:34:44;25.23;;;20.95;;
28796;SDS011;24974;54.444;18.560;2022-08-19T00:37:15;24.27;;;21.08;;
28796;SDS011;24974;54.444;18.560;2022-08-19T00:39:46;33.03;;;21.70;;
28796;SDS011;24974;54.444;18.560;2022-08-19T00:42:18;25.00;;;21.20;;
28796;SDS011;24974;54.444;18.560;2022-08-19T00:44:51;24.48;;;21.98;;
28796;SDS011;24974;54.444;18.560;2022-08-19T00:47:22;25.63;;;21.75;;
28796;SDS011;24974;54.444;18.560;2022-08-19T00:49:54;23.80;;;21.25;;
28796;SDS011;24974;54.444;18.560;2022-08-19T00:52:32;25.10;;;22.52;;
28796;SDS011;24974;54.444;18.560;2022-08-19T00:55:05;27.70;;;21.90;;
28796;SDS011;24974;54.444;18.560;2022-08-19T00:57:44;27.17;;;20.17;;
28796;SDS011;24974;54.444;18.560;2022-08-19T01:00:19;23.48;;;20.95;;
28796;SDS011;24974;54.444;18.560;2022-08-19T01:02:51;23.17;;;20.73;;
28796;SDS011;24974;54.444;18.560;2022-08-19T01:05:24;21.67;;;19.45;;
28796;SDS011;24974;54.444;18.560;2022-08-19T01:07:58;23.23;;;20.92;;
28796;SDS011;24974;54.444;18.560;2022-08-19T01:10:37;24.25;;;21.38;;
28796;SDS011;24974;54.444;18.560;2022-08-19T01:13:11;23.58;;;21.27;;
28796;SDS011;24974;54.444;18.560;2022-08-19T01:15:47;23.60;;;21.15;;
28796;SDS011;24974;54.444;18.560;2022-08-19T01:18:24;23.20;;;20.88;;
28796;SDS011;24974;54.444;18.560;2022-08-19T01:20:58;26.13;;;21.10;;
28796;SDS011;24974;54.444;18.560;2022-08-19T01:23:34;24.55;;;20.92;;
28796;SDS011;24974;54.444;18.560;2022-08-19T01:26:19;26.35;;;21.60;;
28796;SDS011;24974;54.444;18.560;2022-08-19T01:28:53;23.42;;;20.60;;
28796;SDS011;24974;54.444;18.560;2022-08-19T01:31:27;27.83;;;22.45;;
28796;SDS011;24974;54.444;18.560;2022-08-19T01:34:01;24.70;;;22.10;;
28796;SDS011;24974;54.444;18.560;2022-08-19T01:36:34;28.90;;;22.42;;
28796;SDS011;24974;54.444;18.560;2022-08-19T01:39:17;24.27;;;21.52;;
28796;SDS011;24974;54.444;18.560;2022-08-19T01:41:51;26.37;;;22.17;;
28796;SDS011;24974;54.444;18.560;2022-08-19T01:44:24;33.95;;;23.20;;
28796;SDS011;24974;54.444;18.560;2022-08-19T01:46:55;24.58;;;21.48;;
28796;SDS011;24974;54.444;18.560;2022-08-19T01:49:26;28.15;;;23.15;;
28796;SDS011;24974;54.444;18.560;2022-08-19T01:51:58;28.17;;;22.15;;
28796;SDS011;24974;54.444;18.560;2022-08-19T01:54:31;25.02;;;22.42;;
28796;SDS011;24974;54.444;18.560;2022-08-19T01:57:05;25.75;;;22.20;;
28796;SDS011;24974;54.444;18.560;2022-08-19T01:59:39;28.65;;;23.73;;
28796;SDS011;24974;54.444;18.560;2022-08-19T02:02:12;27.20;;;23.38;;
28796;SDS011;24974;54.444;18.560;2022-08-19T02:04:43;26.55;;;23.80;;
28796;SDS011;24974;54.444;18.560;2022-08-19T02:07:13;31.25;;;23.50;;
28796;SDS011;24974;54.444;18.560;2022-08-19T02:09:44;26.75;;;23.83;;
28796;SDS011;24974;54.444;18.560;2022-08-19T02:12:15;31.70;;;24.65;;
28796;SDS011;24974;54.444;18.560;2022-08-19T02:14:46;27.67;;;24.10;;
28796;SDS011;24974;54.444;18.560;2022-08-19T02:17:17;26.50;;;23.70;;
28796;SDS011;24974;54.444;18.560;2022-08-19T02:19:48;26.92;;;22.95;;
28796;SDS011;24974;54.444;18.560;2022-08-19T02:22:19;25.48;;;22.88;;
28796;SDS011;24974;54.444;18.560;2022-08-19T02:24:51;28.30;;;23.17;;
28796;SDS011;24974;54.444;18.560;2022-08-19T02:27:23;24.98;;;22.45;;
28796;SDS011;24974;54.444;18.560;2022-08-19T02:29:54;26.70;;;21.80;;
28796;SDS011;24974;54.444;18.560;2022-08-19T02:32:25;24.80;;;22.15;;
28796;SDS011;24974;54.444;18.560;2022-08-19T02:34:56;23.83;;;21.42;;
28796;SDS011;24974;54.444;18.560;2022-08-19T02:37:27;23.67;;;21.23;;
28796;SDS011;24974;54.444;18.560;2022-08-19T02:40:16;24.98;;;22.00;;
28796;SDS011;24974;54.444;18.560;2022-08-19T02:42:48;28.38;;;21.05;;
28796;SDS011;24974;54.444;18.560;2022-08-19T02:45:20;23.02;;;20.33;;
28796;SDS011;24974;54.444;18.560;2022-08-19T02:47:51;24.42;;;21.65;;
28796;SDS011;24974;54.444;18.560;2022-08-19T02:50:21;23.30;;;20.02;;
28796;SDS011;24974;54.444;18.560;2022-08-19T02:52:53;22.80;;;20.15;;
28796;SDS011;24974;54.444;18.560;2022-08-19T02:55:24;22.63;;;20.10;;
28796;SDS011;24974;54.444;18.560;2022-08-19T02:57:54;22.63;;;20.23;;
28796;SDS011;24974;54.444;18.560;2022-08-19T03:00:27;24.95;;;20.25;;
28796;SDS011;24974;54.444;18.560;2022-08-19T03:02:58;25.40;;;19.23;;
28796;SDS011;24974;54.444;18.560;2022-08-19T03:05:30;22.58;;;20.20;;
28796;SDS011;24974;54.444;18.560;2022-08-19T03:08:01;22.95;;;20.75;;
28796;SDS011;24974;54.444;18.560;2022-08-19T03:10:38;28.98;;;21.40;;
28796;SDS011;24974;54.444;18.560;2022-08-19T03:13:13;22.83;;;20.52;;
28796;SDS011;24974;54.444;18.560;2022-08-19T03:15:46;23.85;;;19.77;;
28796;SDS011;24974;54.444;18.560;2022-08-19T03:18:18;22.50;;;20.38;;
28796;SDS011;24974;54.444;18.560;2022-08-19T03:20:50;21.75;;;19.73;;
28796;SDS011;24974;54.444;18.560;2022-08-19T03:23:26;23.15;;;19.50;;
28796;SDS011;24974;54.444;18.560;2022-08-19T03:25:57;24.73;;;19.23;;
28796;SDS011;24974;54.444;18.560;2022-08-19T03:28:28;21.52;;;19.27;;
28796;SDS011;24974;54.444;18.560;2022-08-19T03:31:00;23.85;;;18.67;;
28796;SDS011;24974;54.444;18.560;2022-08-19T03:33:34;21.13;;;18.10;;
28796;SDS011;24974;54.444;18.560;2022-08-19T03:36:07;21.38;;;18.98;;
28796;SDS011;24974;54.444;18.560;2022-08-19T03:38:42;20.70;;;18.58;;
28796;SDS011;24974;54.444;18.560;2022-08-19T03:41:16;21.65;;;19.33;;
28796;SDS011;24974;54.444;18.560;2022-08-19T03:43:51;20.80;;;18.77;;
28796;SDS011;24974;54.444;18.560;2022-08-19T03:46:25;21.73;;;19.58;;
28796;SDS011;24974;54.444;18.560;2022-08-19T03:48:59;20.77;;;18.42;;
28796;SDS011;24974;54.444;18.560;2022-08-19T03:51:35;21.63;;;19.05;;
28796;SDS011;24974;54.444;18.560;2022-08-19T03:54:08;21.40;;;17.90;;
28796;SDS011;24974;54.444;18.560;2022-08-19T03:56:41;21.58;;;18.60;;
28796;SDS011;24974;54.444;18.560;2022-08-19T03:59:18;23.38;;;19.45;;
28796;SDS011;24974;54.444;18.560;2022-08-19T04:01:55;22.08;;;19.10;;
28796;SDS011;24974;54.444;18.560;2022-08-19T04:04:28;27.35;;;19.05;;
28796;SDS011;24974;54.444;18.560;2022-08-19T04:06:59;20.05;;;18.05;;
28796;SDS011;24974;54.444;18.560;2022-08-19T04:09:30;22.75;;;18.17;;
28796;SDS011;24974;54.444;18.560;2022-08-19T04:12:03;22.30;;;18.90;;
28796;SDS011;24974;54.444;18.560;2022-08-19T04:14:35;24.20;;;18.15;;
28796;SDS011;24974;54.444;18.560;2022-08-19T04:17:06;20.83;;;18.42;;
28796;SDS011;24974;54.444;18.560;2022-08-19T04:19:37;20.52;;;18.38;;
28796;SDS011;24974;54.444;18.560;2022-08-19T04:22:09;19.75;;;17.60;;
28796;SDS011;24974;54.444;18.560;2022-08-19T04:24:41;20.00;;;18.08;;
28796;SDS011;24974;54.444;18.560;2022-08-19T04:27:12;20.83;;;18.00;;
28796;SDS011;24974;54.444;18.560;2022-08-19T04:29:43;23.77;;;18.45;;
28796;SDS011;24974;54.444;18.560;2022-08-19T04:32:14;22.77;;;18.65;;
28796;SDS011;24974;54.444;18.560;2022-08-19T04:34:45;25.98;;;18.67;;
28796;SDS011;24974;54.444;18.560;2022-08-19T04:37:16;22.70;;;17.70;;
28796;SDS011;24974;54.444;18.560;2022-08-19T04:39:47;35.08;;;18.42;;
28796;SDS011;24974;54.444;18.560;2022-08-19T04:42:36;20.70;;;18.08;;
28796;SDS011;24974;54.444;18.560;2022-08-19T04:45:12;20.60;;;18.40;;
28796;SDS011;24974;54.444;18.560;2022-08-19T04:47:44;19.20;;;17.20;;
28796;SDS011;24974;54.444;18.560;2022-08-19T04:50:15;18.67;;;16.55;;
28796;SDS011;24974;54.444;18.560;2022-08-19T04:52:50;20.58;;;17.98;;
28796;SDS011;24974;54.444;18.560;2022-08-19T04:55:21;20.77;;;17.45;;
28796;SDS011;24974;54.444;18.560;2022-08-19T04:57:53;19.50;;;15.80;;
28796;SDS011;24974;54.444;18.560;2022-08-19T05:00:24;19.58;;;15.98;;
28796;SDS011;24974;54.444;18.560;2022-08-19T05:02:55;22.38;;;16.50;;
28796;SDS011;24974;54.444;18.560;2022-08-19T05:05:26;19.67;;;17.15;;
28796;SDS011;24974;54.444;18.560;2022-08-19T05:07:57;21.55;;;16.38;;
28796;SDS011;24974;54.444;18.560;2022-08-19T05:10:27;18.77;;;15.82;;
28796;SDS011;24974;54.444;18.560;2022-08-19T05:12:58;26.30;;;17.33;;
28796;SDS011;24974;54.444;18.560;2022-08-19T05:15:29;26.67;;;18.70;;
28796;SDS011;24974;54.444;18.560;2022-08-19T05:18:01;21.40;;;19.10;;
28796;SDS011;24974;54.444;18.560;2022-08-19T05:20:50;21.63;;;17.50;;
28796;SDS011;24974;54.444;18.560;2022-08-19T05:23:39;30.42;;;22.10;;
28796;SDS011;24974;54.444;18.560;2022-08-19T05:26:11;22.20;;;19.75;;
28796;SDS011;24974;54.444;18.560;2022-08-19T05:28:42;24.77;;;20.60;;
28796;SDS011;24974;54.444;18.560;2022-08-19T05:31:12;31.92;;;22.85;;
28796;SDS011;24974;54.444;18.560;2022-08-19T05:33:43;35.13;;;23.92;;
28796;SDS011;24974;54.444;18.560;2022-08-19T05:36:14;26.48;;;21.27;;
28796;SDS011;24974;54.444;18.560;2022-08-19T05:38:45;32.42;;;22.08;;
28796;SDS011;24974;54.444;18.560;2022-08-19T05:41:17;28.98;;;20.27;;
28796;SDS011;24974;54.444;18.560;2022-08-19T05:43:49;30.83;;;20.70;;
28796;SDS011;24974;54.444;18.560;2022-08-19T05:46:21;27.42;;;20.58;;
28796;SDS011;24974;54.444;18.560;2022-08-19T05:48:54;28.50;;;20.65;;
28796;SDS011;24974;54.444;18.560;2022-08-19T05:51:26;26.27;;;19.77;;
28796;SDS011;24974;54.444;18.560;2022-08-19T05:54:00;27.83;;;20.42;;
28796;SDS011;24974;54.444;18.560;2022-08-19T05:56:33;23.77;;;19.05;;
28796;SDS011;24974;54.444;18.560;2022-08-19T05:59:09;24.65;;;19.20;;
28796;SDS011;24974;54.444;18.560;2022-08-19T06:01:43;29.45;;;18.88;;
28796;SDS011;24974;54.444;18.560;2022-08-19T06:04:16;23.33;;;19.10;;
28796;SDS011;24974;54.444;18.560;2022-08-19T06:06:51;26.10;;;17.92;;
28796;SDS011;24974;54.444;18.560;2022-08-19T06:09:24;24.33;;;18.10;;
28796;SDS011;24974;54.444;18.560;2022-08-19T06:11:56;24.75;;;17.63;;
28796;SDS011;24974;54.444;18.560;2022-08-19T06:14:31;22.45;;;17.08;;
28796;SDS011;24974;54.444;18.560;2022-08-19T06:17:04;20.08;;;16.65;;
28796;SDS011;24974;54.444;18.560;2022-08-19T06:19:35;17.75;;;15.95;;
28796;SDS011;24974;54.444;18.560;2022-08-19T06:22:09;23.90;;;16.63;;
28796;SDS011;24974;54.444;18.560;2022-08-19T06:24:42;27.10;;;16.55;;
28796;SDS011;24974;54.444;18.560;2022-08-19T06:27:13;32.33;;;16.00;;
28796;SDS011;24974;54.444;18.560;2022-08-19T06:29:44;22.73;;;15.45;;
28796;SDS011;24974;54.444;18.560;2022-08-19T06:32:17;18.23;;;15.00;;
28796;SDS011;24974;54.444;18.560;2022-08-19T06:34:49;22.50;;;15.50;;
28796;SDS011;24974;54.444;18.560;2022-08-19T06:37:20;20.35;;;15.38;;
28796;SDS011;24974;54.444;18.560;2022-08-19T06:39:51;20.23;;;15.23;;
28796;SDS011;24974;54.444;18.560;2022-08-19T06:42:22;27.00;;;15.27;;
28796;SDS011;24974;54.444;18.560;2022-08-19T06:44:54;22.50;;;15.88;;
28796;SDS011;24974;54.444;18.560;2022-08-19T06:47:25;20.00;;;14.38;;
28796;SDS011;24974;54.444;18.560;2022-08-19T06:49:56;16.85;;;14.82;;
28796;SDS011;24974;54.444;18.560;2022-08-19T06:52:33;20.33;;;14.52;;
28796;SDS011;24974;54.444;18.560;2022-08-19T06:55:05;21.10;;;14.75;;
28796;SDS011;24974;54.444;18.560;2022-08-19T06:57:37;20.58;;;14.07;;
28796;SDS011;24974;54.444;18.560;2022-08-19T07:00:08;18.13;;;13.70;;
28796;SDS011;24974;54.444;18.560;2022-08-19T07:02:44;16.47;;;12.73;;
28796;SDS011;24974;54.444;18.560;2022-08-19T07:05:16;20.95;;;12.85;;
28796;SDS011;24974;54.444;18.560;2022-08-19T07:07:48;18.23;;;12.23;;
28796;SDS011;24974;54.444;18.560;2022-08-19T07:10:19;21.90;;;12.73;;
28796;SDS011;24974;54.444;18.560;2022-08-19T07:12:50;15.45;;;12.35;;
28796;SDS011;24974;54.444;18.560;2022-08-19T07:15:21;19.00;;;12.00;;
28796;SDS011;24974;54.444;18.560;2022-08-19T07:17:51;23.63;;;12.88;;
28796;SDS011;24974;54.444;18.560;2022-08-19T07:20:22;27.73;;;13.88;;
28796;SDS011;24974;54.444;18.560;2022-08-19T07:22:54;21.90;;;13.95;;
28796;SDS011;24974;54.444;18.560;2022-08-19T07:25:25;21.13;;;13.88;;
28796;SDS011;24974;54.444;18.560;2022-08-19T07:27:55;20.08;;;14.00;;
28796;SDS011;24974;54.444;18.560;2022-08-19T07:30:26;27.23;;;14.18;;
28796;SDS011;24974;54.444;18.560;2022-08-19T07:32:58;28.45;;;15.00;;
28796;SDS011;24974;54.444;18.560;2022-08-19T07:35:29;26.60;;;14.80;;
28796;SDS011;24974;54.444;18.560;2022-08-19T07:38:02;23.45;;;14.73;;
28796;SDS011;24974;54.444;18.560;2022-08-19T07:40:34;28.02;;;16.10;;
28796;SDS011;24974;54.444;18.560;2022-08-19T07:43:04;19.35;;;14.48;;
28796;SDS011;24974;54.444;18.560;2022-08-19T07:45:35;21.90;;;14.63;;
28796;SDS011;24974;54.444;18.560;2022-08-19T07:48:06;25.98;;;16.55;;
28796;SDS011;24974;54.444;18.560;2022-08-19T07:50:37;22.27;;;15.13;;
28796;SDS011;24974;54.444;18.560;2022-08-19T07:53:08;28.27;;;16.92;;
28796;SDS011;24974;54.444;18.560;2022-08-19T07:55:40;28.02;;;18.17;;
28796;SDS011;24974;54.444;18.560;2022-08-19T07:58:12;23.58;;;16.63;;
28796;SDS011;24974;54.444;18.560;2022-08-19T08:00:45;31.58;;;17.23;;
28796;SDS011;24974;54.444;18.560;2022-08-19T08:03:19;25.27;;;16.63;;
28796;SDS011;24974;54.444;18.560;2022-08-19T08:06:12;25.20;;;15.73;;
28796;SDS011;24974;54.444;18.560;2022-08-19T08:09:03;22.98;;;15.73;;
28796;SDS011;24974;54.444;18.560;2022-08-19T08:11:42;31.88;;;15.25;;
28796;SDS011;24974;54.444;18.560;2022-08-19T08:14:21;23.40;;;15.88;;
28796;SDS011;24974;54.444;18.560;2022-08-19T08:16:55;25.67;;;15.40;;
28796;SDS011;24974;54.444;18.560;2022-08-19T08:19:27;23.48;;;15.30;;
28796;SDS011;24974;54.444;18.560;2022-08-19T08:21:59;21.73;;;14.75;;
28796;SDS011;24974;54.444;18.560;2022-08-19T08:24:30;25.83;;;16.20;;
28796;SDS011;24974;54.444;18.560;2022-08-19T08:27:02;27.10;;;16.75;;
28796;SDS011;24974;54.444;18.560;2022-08-19T08:29:34;29.40;;;16.95;;
28796;SDS011;24974;54.444;18.560;2022-08-19T08:32:07;21.17;;;16.02;;
28796;SDS011;24974;54.444;18.560;2022-08-19T08:34:38;19.40;;;15.82;;
28796;SDS011;24974;54.444;18.560;2022-08-19T08:37:09;19.55;;;15.38;;
28796;SDS011;24974;54.444;18.560;2022-08-19T08:39:40;20.25;;;15.43;;
28796;SDS011;24974;54.444;18.560;2022-08-19T08:42:22;19.08;;;14.35;;
28796;SDS011;24974;54.444;18.560;2022-08-19T08:45:05;16.27;;;14.00;;
28796;SDS011;24974;54.444;18.560;2022-08-19T08:47:48;19.17;;;15.10;;
28796;SDS011;24974;54.444;18.560;2022-08-19T08:50:31;26.50;;;14.38;;
28796;SDS011;24974;54.444;18.560;2022-08-19T08:53:10;26.40;;;15.40;;
28796;SDS011;24974;54.444;18.560;2022-08-19T08:55:44;16.77;;;13.32;;
28796;SDS011;24974;54.444;18.560;2022-08-19T08:58:27;19.45;;;14.02;;
28796;SDS011;24974;54.444;18.560;2022-08-19T09:01:12;19.38;;;14.18;;
28796;SDS011;24974;54.444;18.560;2022-08-19T09:03:43;19.58;;;13.93;;
28796;SDS011;24974;54.444;18.560;2022-08-19T09:09:25;19.15;;;15.05;;
28796;SDS011;24974;54.444;18.560;2022-08-19T09:12:18;19.63;;;14.13;;
28796;SDS011;24974;54.444;18.560;2022-08-19T09:15:14;18.77;;;14.25;;
28796;SDS011;24974;54.444;18.560;2022-08-19T09:17:46;15.00;;;13.48;;
28796;SDS011;24974;54.444;18.560;2022-08-19T09:20:19;18.30;;;13.18;;
28796;SDS011;24974;54.444;18.560;2022-08-19T09:22:52;15.40;;;12.88;;
28796;SDS011;24974;54.444;18.560;2022-08-19T09:25:22;19.13;;;12.27;;
28796;SDS011;24974;54.444;18.560;2022-08-19T09:27:54;16.02;;;12.60;;
28796;SDS011;24974;54.444;18.560;2022-08-19T09:30:27;19.48;;;13.43;;
28796;SDS011;24974;54.444;18.560;2022-08-19T09:33:00;15.50;;;13.48;;
28796;SDS011;24974;54.444;18.560;2022-08-19T09:35:31;15.18;;;13.35;;
28796;SDS011;24974;54.444;18.560;2022-08-19T09:38:02;18.83;;;13.50;;
28796;SDS011;24974;54.444;18.560;2022-08-19T09:40:33;19.25;;;12.10;;
28796;SDS011;24974;54.444;18.560;2022-08-19T09:43:04;17.08;;;12.77;;
28796;SDS011;24974;54.444;18.560;2022-08-19T09:45:35;12.40;;;11.18;;
28796;SDS011;24974;54.444;18.560;2022-08-19T09:48:06;16.20;;;10.73;;
28796;SDS011;24974;54.444;18.560;2022-08-19T09:50:37;15.63;;;11.70;;
28796;SDS011;24974;54.444;18.560;2022-08-19T09:53:08;13.13;;;11.73;;
28796;SDS011;24974;54.444;18.560;2022-08-19T09:55:42;16.50;;;11.45;;
28796;SDS011;24974;54.444;18.560;2022-08-19T09:58:14;14.57;;;10.85;;
28796;SDS011;24974;54.444;18.560;2022-08-19T10:00:45;15.32;;;10.75;;
28796;SDS011;24974;54.444;18.560;2022-08-19T10:03:16;16.25;;;10.30;;
28796;SDS011;24974;54.444;18.560;2022-08-19T10:05:47;12.63;;;9.98;;
28796;SDS011;24974;54.444;18.560;2022-08-19T10:08:20;15.27;;;10.30;;
28796;SDS011;24974;54.444;18.560;2022-08-19T10:10:58;16.80;;;9.93;;
28796;SDS011;24974;54.444;18.560;2022-08-19T10:13:30;13.45;;;9.65;;
28796;SDS011;24974;54.444;18.560;2022-08-19T10:16:04;14.80;;;9.23;;
28796;SDS011;24974;54.444;18.560;2022-08-19T10:18:37;13.38;;;8.80;;
28796;SDS011;24974;54.444;18.560;2022-08-19T10:21:18;14.32;;;8.82;;
28796;SDS011;24974;54.444;18.560;2022-08-19T10:23:52;14.60;;;9.13;;
28796;SDS011;24974;54.444;18.560;2022-08-19T10:26:30;20.08;;;9.52;;
28796;SDS011;24974;54.444;18.560;2022-08-19T10:29:05;11.98;;;8.43;;
28796;SDS011;24974;54.444;18.560;2022-08-19T10:31:36;14.45;;;9.35;;
28796;SDS011;24974;54.444;18.560;2022-08-19T10:34:07;14.25;;;9.30;;
28796;SDS011;24974;54.444;18.560;2022-08-19T10:36:39;15.48;;;9.10;;
28796;SDS011;24974;54.444;18.560;2022-08-19T10:39:10;18.80;;;10.18;;
28796;SDS011;24974;54.444;18.560;2022-08-19T10:41:43;19.25;;;9.52;;
28796;SDS011;24974;54.444;18.560;2022-08-19T10:44:14;19.40;;;9.60;;
28796;SDS011;24974;54.444;18.560;2022-08-19T10:46:46;17.27;;;10.80;;
28796;SDS011;24974;54.444;18.560;2022-08-19T10:49:17;10.85;;;9.52;;
28796;SDS011;24974;54.444;18.560;2022-08-19T10:51:49;14.05;;;10.38;;
28796;SDS011;24974;54.444;18.560;2022-08-19T10:54:39;14.32;;;9.48;;
28796;SDS011;24974;54.444;18.560;2022-08-19T10:57:31;13.85;;;9.75;;
28796;SDS011;24974;54.444;18.560;2022-08-19T11:00:03;15.35;;;9.90;;
28796;SDS011;24974;54.444;18.560;2022-08-19T11:02:34;13.63;;;10.07;;
28796;SDS011;24974;54.444;18.560;2022-08-19T11:05:05;16.92;;;9.30;;
28796;SDS011;24974;54.444;18.560;2022-08-19T11:07:38;13.48;;;9.20;;
28796;SDS011;24974;54.444;18.560;2022-08-19T11:10:09;13.43;;;8.57;;
28796;SDS011;24974;54.444;18.560;2022-08-19T11:12:42;12.93;;;8.18;;
28796;SDS011;24974;54.444;18.560;2022-08-19T11:15:13;15.07;;;8.35;;
28796;SDS011;24974;54.444;18.560;2022-08-19T11:17:44;16.65;;;9.05;;
28796;SDS011;24974;54.444;18.560;2022-08-19T11:20:15;15.30;;;8.52;;
28796;SDS011;24974;54.444;18.560;2022-08-19T11:22:46;12.00;;;8.23;;
28796;SDS011;24974;54.444;18.560;2022-08-19T11:25:17;14.35;;;8.25;;
28796;SDS011;24974;54.444;18.560;2022-08-19T11:27:48;16.23;;;8.23;;
28796;SDS011;24974;54.444;18.560;2022-08-19T11:30:21;10.68;;;7.68;;
28796;SDS011;24974;54.444;18.560;2022-08-19T11:32:52;14.55;;;7.50;;
28796;SDS011;24974;54.444;18.560;2022-08-19T11:35:22;12.60;;;7.47;;
28796;SDS011;24974;54.444;18.560;2022-08-19T11:37:53;14.52;;;7.47;;
28796;SDS011;24974;54.444;18.560;2022-08-19T11:40:24;10.30;;;7.88;;
28796;SDS011;24974;54.444;18.560;2022-08-19T11:42:55;10.13;;;7.75;;
28796;SDS011;24974;54.444;18.560;2022-08-19T11:45:27;13.02;;;7.70;;
28796;SDS011;24974;54.444;18.560;2022-08-19T11:47:59;10.65;;;7.38;;
28796;SDS011;24974;54.444;18.560;2022-08-19T11:50:30;12.73;;;7.53;;
28796;SDS011;24974;54.444;18.560;2022-08-19T11:53:01;16.55;;;7.75;;
28796;SDS011;24974;54.444;18.560;2022-08-19T11:55:32;18.10;;;9.35;;
28796;SDS011;24974;54.444;18.560;2022-08-19T11:58:03;14.38;;;10.00;;
28796;SDS011;24974;54.444;18.560;2022-08-19T12:00:36;13.27;;;7.40;;
28796;SDS011;24974;54.444;18.560;2022-08-19T12:03:08;15.27;;;8.00;;
28796;SDS011;24974;54.444;18.560;2022-08-19T12:05:40;9.73;;;7.75;;
28796;SDS011;24974;54.444;18.560;2022-08-19T12:08:11;12.60;;;8.02;;
28796;SDS011;24974;54.444;18.560;2022-08-19T12:10:43;12.70;;;8.27;;
28796;SDS011;24974;54.444;18.560;2022-08-19T12:13:15;12.10;;;7.97;;
28796;SDS011;24974;54.444;18.560;2022-08-19T12:15:48;12.18;;;8.20;;
28796;SDS011;24974;54.444;18.560;2022-08-19T12:18:20;12.07;;;7.75;;
28796;SDS011;24974;54.444;18.560;2022-08-19T12:20:51;16.88;;;8.50;;
28796;SDS011;24974;54.444;18.560;2022-08-19T12:23:24;15.45;;;8.45;;
28796;SDS011;24974;54.444;18.560;2022-08-19T12:25:55;16.13;;;8.52;;
28796;SDS011;24974;54.444;18.560;2022-08-19T12:28:27;17.42;;;7.95;;
28796;SDS011;24974;54.444;18.560;2022-08-19T12:30:58;11.88;;;8.45;;
28796;SDS011;24974;54.444;18.560;2022-08-19T12:33:29;18.73;;;9.48;;
28796;SDS011;24974;54.444;18.560;2022-08-19T12:36:03;12.95;;;8.32;;
28796;SDS011;24974;54.444;18.560;2022-08-19T12:38:36;9.52;;;8.05;;
28796;SDS011;24974;54.444;18.560;2022-08-19T12:41:09;18.88;;;8.73;;
28796;SDS011;24974;54.444;18.560;2022-08-19T12:43:42;12.68;;;7.85;;
28796;SDS011;24974;54.444;18.560;2022-08-19T12:46:13;11.65;;;8.18;;
28796;SDS011;24974;54.444;18.560;2022-08-19T12:48:44;13.70;;;8.13;;
28796;SDS011;24974;54.444;18.560;2022-08-19T12:51:17;9.90;;;8.02;;
28796;SDS011;24974;54.444;18.560;2022-08-19T12:53:50;15.82;;;8.77;;
28796;SDS011;24974;54.444;18.560;2022-08-19T12:56:23;15.20;;;9.98;;
28796;SDS011;24974;54.444;18.560;2022-08-19T12:58:54;13.10;;;9.13;;
28796;SDS011;24974;54.444;18.560;2022-08-19T13:01:25;10.65;;;8.40;;
28796;SDS011;24974;54.444;18.560;2022-08-19T13:03:56;15.25;;;8.43;;
28796;SDS011;24974;54.444;18.560;2022-08-19T13:06:27;13.20;;;8.73;;
28796;SDS011;24974;54.444;18.560;2022-08-19T13:08:58;14.85;;;8.55;;
28796;SDS011;24974;54.444;18.560;2022-08-19T13:11:29;15.32;;;9.02;;
28796;SDS011;24974;54.444;18.560;2022-08-19T13:14:03;16.40;;;10.20;;
28796;SDS011;24974;54.444;18.560;2022-08-19T13:16:35;17.60;;;9.82;;
28796;SDS011;24974;54.444;18.560;2022-08-19T13:19:06;15.30;;;10.52;;
28796;SDS011;24974;54.444;18.560;2022-08-19T13:21:37;12.82;;;9.93;;
28796;SDS011;24974;54.444;18.560;2022-08-19T13:24:08;17.90;;;10.00;;
28796;SDS011;24974;54.444;18.560;2022-08-19T13:26:39;15.30;;;9.68;;
28796;SDS011;24974;54.444;18.560;2022-08-19T13:29:10;16.10;;;9.57;;
28796;SDS011;24974;54.444;18.560;2022-08-19T13:32:00;16.98;;;9.80;;
28796;SDS011;24974;54.444;18.560;2022-08-19T13:34:50;14.20;;;9.80;;
28796;SDS011;24974;54.444;18.560;2022-08-19T13:37:21;18.80;;;10.38;;
28796;SDS011;24974;54.444;18.560;2022-08-19T13:40:16;12.52;;;9.48;;
28796;SDS011;24974;54.444;18.560;2022-08-19T13:42:54;14.38;;;9.30;;
28796;SDS011;24974;54.444;18.560;2022-08-19T13:45:26;14.02;;;9.70;;
28796;SDS011;24974;54.444;18.560;2022-08-19T13:47:59;12.90;;;10.15;;
28796;SDS011;24974;54.444;18.560;2022-08-19T13:50:38;16.85;;;9.95;;
28796;SDS011;24974;54.444;18.560;2022-08-19T13:53:13;14.15;;;8.55;;
28796;SDS011;24974;54.444;18.560;2022-08-19T13:55:45;16.58;;;9.48;;
28796;SDS011;24974;54.444;18.560;2022-08-19T13:58:16;20.00;;;11.02;;
28796;SDS011;24974;54.444;18.560;2022-08-19T14:00:48;16.80;;;10.13;;
28796;SDS011;24974;54.444;18.560;2022-08-19T14:03:19;15.65;;;10.52;;
28796;SDS011;24974;54.444;18.560;2022-08-19T14:05:51;13.98;;;9.90;;
28796;SDS011;24974;54.444;18.560;2022-08-19T14:08:22;15.38;;;10.15;;
28796;SDS011;24974;54.444;18.560;2022-08-19T14:10:54;17.90;;;9.23;;
28796;SDS011;24974;54.444;18.560;2022-08-19T14:13:25;14.32;;;8.98;;
28796;SDS011;24974;54.444;18.560;2022-08-19T14:15:56;14.77;;;8.75;;
28796;SDS011;24974;54.444;18.560;2022-08-19T14:18:28;15.73;;;9.52;;
28796;SDS011;24974;54.444;18.560;2022-08-19T14:20:59;14.93;;;9.57;;
28796;SDS011;24974;54.444;18.560;2022-08-19T14:23:31;17.00;;;9.38;;
28796;SDS011;24974;54.444;18.560;2022-08-19T14:26:13;18.02;;;7.80;;
28796;SDS011;24974;54.444;18.560;2022-08-19T14:28:45;15.63;;;7.22;;
28796;SDS011;24974;54.444;18.560;2022-08-19T14:31:17;16.88;;;7.13;;
28796;SDS011;24974;54.444;18.560;2022-08-19T14:33:49;13.32;;;7.28;;
28796;SDS011;24974;54.444;18.560;2022-08-19T14:36:21;10.13;;;7.32;;
28796;SDS011;24974;54.444;18.560;2022-08-19T14:38:52;11.43;;;7.25;;
28796;SDS011;24974;54.444;18.560;2022-08-19T14:41:23;11.07;;;7.13;;
28796;SDS011;24974;54.444;18.560;2022-08-19T14:43:54;13.23;;;7.43;;
28796;SDS011;24974;54.444;18.560;2022-08-19T14:46:26;15.52;;;7.40;;
28796;SDS011;24974;54.444;18.560;2022-08-19T14:48:58;10.95;;;6.78;;
28796;SDS011;24974;54.444;18.560;2022-08-19T14:51:29;12.80;;;7.22;;